Terminal Aerodrome Forecast
Issued by NWS

Home | Current Version | Previous Version | Text Only | Print | Product List | Glossary Off
Versions: 1 2 3 4 5 6 7 8 9 10 11 12 13 14 15 16 17 18 19

000
FTUS43 KGRB 180211 AAA
TAFMTW
TAF AMD
KMTW 180211Z 1802/1824 18018G23KT 4SM -RA BR OVC006
     FM180300 21009KT 2SM -RA BR OVC006
     FM180700 33004KT 1 1/2SM -DZ BR OVC004
     FM181100 35010KT 4SM -DZ BR OVC008
     FM181400 35015G22KT P6SM OVC020
     FM181800 33016G24KT P6SM SCT025 BKN040=

USA.gov is the U.S. government's official web portal to all federal, state and local government web resources and services.